sensor_id;sensor_type;location;lat;lon;timestamp;P1;durP1;ratioP1;P2;durP2;ratioP2
20935;SDS011;10627;54.514;18.532;2023-03-01T16:55:15;6.90;;;3.67;;
20935;SDS011;10627;54.514;18.532;2023-03-01T17:00:18;6.05;;;4.00;;
20935;SDS011;10627;54.514;18.532;2023-03-01T17:05:19;6.63;;;4.03;;
20935;SDS011;10627;54.514;18.532;2023-03-01T17:10:21;7.93;;;4.27;;
20935;SDS011;10627;54.514;18.532;2023-03-01T17:15:24;10.43;;;4.73;;
20935;SDS011;10627;54.514;18.532;2023-03-01T17:20:27;8.73;;;4.63;;
20935;SDS011;10627;54.514;18.532;2023-03-01T17:25:30;8.90;;;4.63;;
20935;SDS011;10627;54.514;18.532;2023-03-01T17:30:31;7.97;;;4.33;;
20935;SDS011;10627;54.514;18.532;2023-03-01T17:35:32;9.60;;;4.33;;
20935;SDS011;10627;54.514;18.532;2023-03-01T17:40:39;7.93;;;3.80;;
20935;SDS011;10627;54.514;18.532;2023-03-01T17:45:45;11.07;;;5.13;;
20935;SDS011;10627;54.514;18.532;2023-03-01T17:50:51;5.43;;;3.60;;
20935;SDS011;10627;54.514;18.532;2023-03-01T17:55:58;5.13;;;3.50;;
20935;SDS011;10627;54.514;18.532;2023-03-01T18:01:13;5.33;;;3.63;;
20935;SDS011;10627;54.514;18.532;2023-03-01T18:06:19;9.33;;;3.90;;
20935;SDS011;10627;54.514;18.532;2023-03-01T18:11:22;9.83;;;4.77;;
20935;SDS011;10627;54.514;18.532;2023-03-01T18:16:26;8.13;;;4.37;;
20935;SDS011;10627;54.514;18.532;2023-03-01T18:21:28;5.07;;;3.47;;
20935;SDS011;10627;54.514;18.532;2023-03-01T18:26:30;13.73;;;5.30;;
20935;SDS011;10627;54.514;18.532;2023-03-01T18:31:32;10.10;;;4.70;;
20935;SDS011;10627;54.514;18.532;2023-03-01T18:36:34;11.60;;;6.17;;
20935;SDS011;10627;54.514;18.532;2023-03-01T18:41:36;10.60;;;4.07;;
20935;SDS011;10627;54.514;18.532;2023-03-01T18:46:38;11.83;;;4.90;;
20935;SDS011;10627;54.514;18.532;2023-03-01T18:51:42;18.03;;;6.67;;
20935;SDS011;10627;54.514;18.532;2023-03-01T18:56:44;7.77;;;3.43;;
20935;SDS011;10627;54.514;18.532;2023-03-01T19:01:47;8.80;;;3.83;;
20935;SDS011;10627;54.514;18.532;2023-03-01T19:06:49;7.53;;;3.97;;
20935;SDS011;10627;54.514;18.532;2023-03-01T19:11:51;10.03;;;5.33;;
20935;SDS011;10627;54.514;18.532;2023-03-01T19:16:53;14.10;;;6.83;;
20935;SDS011;10627;54.514;18.532;2023-03-01T19:21:56;14.17;;;6.67;;
20935;SDS011;10627;54.514;18.532;2023-03-01T19:26:59;14.30;;;6.10;;
20935;SDS011;10627;54.514;18.532;2023-03-01T19:32:02;13.37;;;4.80;;
20935;SDS011;10627;54.514;18.532;2023-03-01T19:37:05;9.67;;;3.80;;
20935;SDS011;10627;54.514;18.532;2023-03-01T19:42:08;8.73;;;3.03;;
20935;SDS011;10627;54.514;18.532;2023-03-01T19:47:10;10.97;;;4.47;;
20935;SDS011;10627;54.514;18.532;2023-03-01T19:52:19;11.93;;;5.23;;
20935;SDS011;10627;54.514;18.532;2023-03-01T19:57:23;12.80;;;4.37;;
20935;SDS011;10627;54.514;18.532;2023-03-01T20:02:24;14.37;;;5.80;;
20935;SDS011;10627;54.514;18.532;2023-03-01T20:07:26;13.67;;;4.70;;
20935;SDS011;10627;54.514;18.532;2023-03-01T20:12:30;15.63;;;5.77;;
20935;SDS011;10627;54.514;18.532;2023-03-01T20:17:35;20.67;;;7.77;;
20935;SDS011;10627;54.514;18.532;2023-03-01T20:22:37;18.23;;;5.47;;
20935;SDS011;10627;54.514;18.532;2023-03-01T20:27:39;8.73;;;4.07;;
20935;SDS011;10627;54.514;18.532;2023-03-01T20:32:41;13.00;;;5.07;;
20935;SDS011;10627;54.514;18.532;2023-03-01T20:37:43;14.20;;;4.90;;
20935;SDS011;10627;54.514;18.532;2023-03-01T20:42:48;11.17;;;5.50;;
20935;SDS011;10627;54.514;18.532;2023-03-01T20:47:52;14.13;;;5.00;;
20935;SDS011;10627;54.514;18.532;2023-03-01T20:52:55;14.53;;;5.97;;
20935;SDS011;10627;54.514;18.532;2023-03-01T20:57:57;12.33;;;5.77;;
20935;SDS011;10627;54.514;18.532;2023-03-01T21:02:59;11.50;;;5.83;;
20935;SDS011;10627;54.514;18.532;2023-03-01T21:08:04;14.43;;;5.13;;
20935;SDS011;10627;54.514;18.532;2023-03-01T21:13:05;13.37;;;5.80;;
20935;SDS011;10627;54.514;18.532;2023-03-01T21:18:08;14.07;;;5.23;;
20935;SDS011;10627;54.514;18.532;2023-03-01T21:23:10;8.70;;;4.93;;
20935;SDS011;10627;54.514;18.532;2023-03-01T21:28:11;11.23;;;4.27;;
20935;SDS011;10627;54.514;18.532;2023-03-01T21:33:12;10.63;;;3.53;;
20935;SDS011;10627;54.514;18.532;2023-03-01T21:38:14;12.80;;;3.80;;
20935;SDS011;10627;54.514;18.532;2023-03-01T21:43:17;7.40;;;2.83;;
20935;SDS011;10627;54.514;18.532;2023-03-01T21:48:19;9.03;;;3.33;;
20935;SDS011;10627;54.514;18.532;2023-03-01T21:53:21;11.97;;;2.83;;
20935;SDS011;10627;54.514;18.532;2023-03-01T21:58:23;7.50;;;3.17;;
20935;SDS011;10627;54.514;18.532;2023-03-01T22:03:27;9.87;;;4.10;;
20935;SDS011;10627;54.514;18.532;2023-03-01T22:08:29;13.37;;;5.17;;
20935;SDS011;10627;54.514;18.532;2023-03-01T22:13:30;18.57;;;6.73;;
20935;SDS011;10627;54.514;18.532;2023-03-01T22:18:32;26.23;;;8.30;;
20935;SDS011;10627;54.514;18.532;2023-03-01T22:23:34;22.07;;;7.13;;
20935;SDS011;10627;54.514;18.532;2023-03-01T22:28:37;20.60;;;6.63;;
20935;SDS011;10627;54.514;18.532;2023-03-01T22:33:40;10.07;;;4.20;;
20935;SDS011;10627;54.514;18.532;2023-03-01T22:38:42;11.77;;;3.30;;
20935;SDS011;10627;54.514;18.532;2023-03-01T22:43:44;7.30;;;2.53;;
20935;SDS011;10627;54.514;18.532;2023-03-01T22:48:46;8.90;;;2.70;;
20935;SDS011;10627;54.514;18.532;2023-03-01T22:53:51;12.53;;;2.73;;
20935;SDS011;10627;54.514;18.532;2023-03-01T22:58:53;5.37;;;2.87;;
20935;SDS011;10627;54.514;18.532;2023-03-01T23:03:57;14.00;;;4.50;;
20935;SDS011;10627;54.514;18.532;2023-03-01T23:09:06;21.53;;;5.83;;
20935;SDS011;10627;54.514;18.532;2023-03-01T23:14:14;10.40;;;4.00;;
20935;SDS011;10627;54.514;18.532;2023-03-01T23:19:16;11.63;;;3.43;;
20935;SDS011;10627;54.514;18.532;2023-03-01T23:24:21;8.13;;;2.77;;
20935;SDS011;10627;54.514;18.532;2023-03-01T23:29:25;8.33;;;2.40;;
20935;SDS011;10627;54.514;18.532;2023-03-01T23:34:27;5.63;;;1.87;;
20935;SDS011;10627;54.514;18.532;2023-03-01T23:39:29;10.67;;;3.00;;
20935;SDS011;10627;54.514;18.532;2023-03-01T23:44:50;10.97;;;2.73;;
20935;SDS011;10627;54.514;18.532;2023-03-01T23:49:55;5.03;;;2.63;;
20935;SDS011;10627;54.514;18.532;2023-03-01T23:55:04;14.40;;;3.13;;
